Time;durP1;ratioP1;P1;durP2;ratioP2;P2;SDS_P1;SDS_P2;PMS_P1;PMS_P2;Temp;Humidity;BMP_temperature;BMP_pressure;BME280_temperature;BME280_humidity;BME280_pressure;Samples;Min_cycle;Max_cycle;Signal;HPM_P1;HPM_P2
2022/04/06 00:00:24;;;;;;;11.52;3.05;;;18.50;48.60;;;;;;5135828;28;20064;-60
2022/04/06 00:02:51;;;;;;;14.65;3.03;;;18.50;48.60;;;;;;5135776;28;20028;-59
2022/04/06 00:05:16;;;;;;;7.20;2.85;;;18.50;48.60;;;;;;5135666;28;20021;-60
2022/04/06 00:07:43;;;;;;;11.07;3.05;;;18.50;48.50;;;;;;5135092;28;20020;-59
2022/04/06 00:10:10;;;;;;;8.73;2.88;;;18.50;48.50;;;;;;5116790;28;20023;-61
2022/04/06 00:12:36;;;;;;;8.63;2.78;;;18.50;48.50;;;;;;5134888;28;20067;-59
2022/04/06 00:15:04;;;;;;;13.60;3.13;;;18.50;48.60;;;;;;5116140;28;20071;-59
2022/04/06 00:17:29;;;;;;;9.07;2.42;;;18.50;48.60;;;;;;5116099;28;20053;-60
2022/04/06 00:19:55;;;;;;;8.52;2.75;;;18.50;48.60;;;;;;5115980;28;20513;-59
2022/04/06 00:22:21;;;;;;;7.85;2.70;;;18.50;48.60;;;;;;5134176;28;20084;-59
2022/04/06 00:24:47;;;;;;;8.73;2.75;;;18.50;48.60;;;;;;5115767;28;20445;-59
2022/04/06 00:27:14;;;;;;;10.45;3.20;;;18.40;48.60;;;;;;5134548;28;20019;-59
2022/04/06 00:29:40;;;;;;;12.23;2.88;;;18.40;49.10;;;;;;5116102;28;20099;-59
2022/04/06 00:32:08;;;;;;;8.15;3.08;;;18.40;48.50;;;;;;5116437;28;20015;-59
2022/04/06 00:37:19;;;;;;;7.68;2.65;;;18.40;48.50;;;;;;5135881;28;20539;-58
2022/04/06 00:39:44;;;;;;;9.27;2.72;;;18.40;48.40;;;;;;5135355;28;20031;-59
2022/04/06 00:42:10;;;;;;;11.23;2.78;;;18.40;48.40;;;;;;5135024;28;20034;-59
2022/04/06 00:44:37;;;;;;;9.95;2.53;;;18.40;48.40;;;;;;5116567;28;20007;-59
2022/04/06 00:47:03;;;;;;;7.35;2.63;;;18.40;48.40;;;;;;5134738;28;20015;-59
2022/04/06 00:49:29;;;;;;;11.70;3.45;;;18.40;48.40;;;;;;5134373;28;20098;-58
2022/04/06 00:51:54;;;;;;;13.15;3.38;;;18.40;48.40;;;;;;5133730;28;20095;-58
2022/04/06 00:54:21;;;;;;;9.32;2.60;;;18.40;48.40;;;;;;5135507;27;20020;-58
2022/04/06 00:56:47;;;;;;;9.57;2.92;;;18.40;48.30;;;;;;5137427;27;20035;-58
2022/04/06 00:59:17;;;;;;;11.82;3.05;;;18.40;48.30;;;;;;5137656;27;20019;-58
2022/04/06 01:01:46;;;;;;;8.80;2.60;;;18.30;48.10;;;;;;5119586;27;20484;-58
2022/04/06 01:04:13;;;;;;;14.65;3.33;;;18.40;48.10;;;;;;5137907;27;20011;-58
2022/04/06 01:06:39;;;;;;;7.13;2.83;;;18.30;48.00;;;;;;5139023;27;20365;-58
2022/04/06 01:09:05;;;;;;;8.43;2.75;;;18.30;48.00;;;;;;5138434;27;20027;-58
2022/04/06 01:11:31;;;;;;;9.93;2.40;;;18.30;48.00;;;;;;5118711;27;20068;-57
2022/04/06 01:13:57;;;;;;;8.35;2.80;;;18.30;48.00;;;;;;5136878;27;20461;-57
2022/04/06 01:16:24;;;;;;;8.90;2.67;;;18.30;48.00;;;;;;5136697;27;20015;-57
2022/04/06 01:18:50;;;;;;;7.18;2.72;;;18.30;47.90;;;;;;5137064;27;20019;-57
2022/04/06 01:21:16;;;;;;;8.23;2.95;;;18.30;47.80;;;;;;5137290;27;20024;-58
2022/04/06 01:23:43;;;;;;;11.70;2.90;;;18.30;47.80;;;;;;5136769;27;20473;-58
2022/04/06 01:26:09;;;;;;;8.75;2.53;;;18.30;47.70;;;;;;5118697;27;20114;-57
2022/04/06 01:28:36;;;;;;;7.68;2.22;;;18.30;47.70;;;;;;5136821;27;20027;-58
2022/04/06 01:31:03;;;;;;;11.35;2.80;;;18.30;47.60;;;;;;5136539;27;20035;-57
2022/04/06 01:33:28;;;;;;;7.57;2.22;;;18.30;47.60;;;;;;5136345;27;20034;-58
2022/04/06 01:35:58;;;;;;;8.75;2.38;;;18.30;47.60;;;;;;5136312;27;20469;-57
2022/04/06 01:38:24;;;;;;;13.88;2.80;;;18.30;47.60;;;;;;5136544;27;20011;-57
2022/04/06 01:40:51;;;;;;;11.88;3.13;;;18.20;47.50;;;;;;5136417;27;20027;-57
2022/04/06 01:43:18;;;;;;;9.98;2.55;;;18.20;47.40;;;;;;5136087;27;20491;-57
2022/04/06 01:45:43;;;;;;;7.68;2.53;;;18.20;47.40;;;;;;5135969;27;20015;-58
2022/04/06 01:48:09;;;;;;;7.80;3.00;;;18.30;47.40;;;;;;5135859;27;20024;-58
2022/04/06 01:53:19;;;;;;;8.82;2.58;;;18.20;47.30;;;;;;5135886;27;20026;-58
2022/04/06 01:55:46;;;;;;;8.52;2.42;;;18.20;47.30;;;;;;5136082;27;20019;-58
2022/04/06 01:58:12;;;;;;;8.85;2.72;;;18.20;47.30;;;;;;5136046;27;20049;-58
2022/04/06 02:00:39;;;;;;;8.82;2.47;;;18.20;47.30;;;;;;5135615;27;20373;-57
2022/04/06 02:03:05;;;;;;;7.45;2.08;;;18.20;47.20;;;;;;5135954;27;20023;-59
2022/04/06 02:05:33;;;;;;;8.15;2.50;;;18.20;47.20;;;;;;5136386;27;20425;-60
2022/04/06 02:07:59;;;;;;;8.25;2.45;;;18.20;47.20;;;;;;5136462;27;20022;-59
2022/04/06 02:10:25;;;;;;;7.03;2.40;;;18.20;47.20;;;;;;5136299;27;20018;-59
2022/04/06 02:12:52;;;;;;;8.02;2.20;;;18.20;47.10;;;;;;5136535;27;20076;-59
2022/04/06 02:15:19;;;;;;;4.70;1.98;;;18.20;47.20;;;;;;5119141;27;20011;-60
2022/04/06 02:17:47;;;;;;;6.97;2.30;;;18.20;47.10;;;;;;5136857;27;20022;-59
2022/04/06 02:20:13;;;;;;;10.05;2.55;;;18.20;47.20;;;;;;5136347;27;20011;-59
2022/04/06 02:22:40;;;;;;;7.95;2.40;;;18.20;47.20;;;;;;5135766;27;20053;-59
2022/04/06 02:25:07;;;;;;;9.40;2.45;;;18.20;47.30;;;;;;5136283;27;20114;-59
2022/04/06 02:27:33;;;;;;;7.28;2.42;;;18.10;47.20;;;;;;5135381;27;20106;-59
2022/04/06 02:29:59;;;;;;;6.45;2.42;;;18.10;47.30;;;;;;5135243;27;20110;-59
2022/04/06 02:32:25;;;;;;;7.38;2.33;;;18.20;47.30;;;;;;5135935;27;20019;-59
2022/04/06 02:34:51;;;;;;;10.85;3.08;;;18.10;47.30;;;;;;5135680;27;20031;-59
2022/04/06 02:37:18;;;;;;;9.20;2.45;;;18.10;47.30;;;;;;5136154;27;20023;-59
2022/04/06 02:39:43;;;;;;;8.05;2.78;;;18.20;47.40;;;;;;5135802;27;20449;-59
2022/04/06 02:42:09;;;;;;;7.10;2.10;;;18.20;47.40;;;;;;5136310;27;20114;-59
2022/04/06 02:44:35;;;;;;;11.38;2.72;;;18.20;47.40;;;;;;5136203;27;20023;-59
2022/04/06 02:47:02;;;;;;;10.20;2.78;;;18.10;47.40;;;;;;5136108;27;20037;-59
2022/04/06 02:49:30;;;;;;;7.00;2.67;;;18.10;47.50;;;;;;5135619;27;20071;-59
2022/04/06 02:51:56;;;;;;;11.23;3.03;;;18.10;47.50;;;;;;5135325;27;20011;-59
2022/04/06 02:54:23;;;;;;;12.82;2.90;;;18.10;47.50;;;;;;5135468;27;20020;-59
2022/04/06 02:56:49;;;;;;;9.48;2.78;;;18.10;47.60;;;;;;5134793;27;20030;-59
2022/04/06 02:59:15;;;;;;;9.27;2.30;;;18.10;47.60;;;;;;5135295;27;20080;-59
2022/04/06 03:01:41;;;;;;;8.52;2.88;;;18.10;47.60;;;;;;5135050;27;20464;-59
2022/04/06 03:04:07;;;;;;;7.78;2.33;;;18.10;47.60;;;;;;5134892;27;20031;-59
2022/04/06 03:06:33;;;;;;;10.30;2.60;;;18.10;47.60;;;;;;5134395;27;20076;-59
2022/04/06 03:08:59;;;;;;;10.77;2.95;;;18.10;47.70;;;;;;5116096;27;20106;-60
2022/04/06 03:11:26;;;;;;;7.53;2.22;;;18.10;47.70;;;;;;5134384;27;20015;-59
2022/04/06 03:13:52;;;;;;;9.60;3.20;;;18.10;47.80;;;;;;5116454;27;20098;-59
2022/04/06 03:16:19;;;;;;;8.65;2.90;;;18.10;47.80;;;;;;5115978;27;20015;-60
2022/04/06 03:18:45;;;;;;;11.95;3.40;;;18.10;47.90;;;;;;5134589;27;20030;-60
2022/04/06 03:21:11;;;;;;;6.57;2.35;;;18.10;47.90;;;;;;5134532;27;20019;-61
2022/04/06 03:23:37;;;;;;;9.13;2.80;;;18.10;47.90;;;;;;5135214;27;20075;-58
2022/04/06 03:26:03;;;;;;;8.10;2.55;;;18.10;48.00;;;;;;5135056;27;20465;-58
2022/04/06 03:28:29;;;;;;;9.27;3.00;;;18.00;47.90;;;;;;5134447;27;20023;-58
2022/04/06 03:30:55;;;;;;;8.18;2.72;;;18.00;47.90;;;;;;5116033;28;20515;-57
2022/04/06 03:33:21;;;;;;;10.75;2.75;;;18.00;47.90;;;;;;5116779;27;20091;-58
2022/04/06 03:35:48;;;;;;;10.90;3.15;;;18.00;47.90;;;;;;5135135;27;20091;-58
2022/04/06 03:38:14;;;;;;;10.60;3.05;;;18.00;47.90;;;;;;5134799;27;20015;-59
2022/04/06 03:40:40;;;;;;;10.02;3.05;;;18.00;47.90;;;;;;5135178;28;20031;-59
2022/04/06 03:43:06;;;;;;;11.32;2.72;;;18.00;47.90;;;;;;5134770;28;20102;-60
2022/04/06 03:45:32;;;;;;;8.63;2.55;;;18.00;47.90;;;;;;5134591;28;20093;-60
2022/04/06 03:47:58;;;;;;;13.18;3.03;;;18.00;47.90;;;;;;5134995;28;20026;-59
2022/04/06 03:50:25;;;;;;;9.15;3.08;;;18.10;47.80;;;;;;5116722;28;20018;-59
2022/04/06 03:52:50;;;;;;;9.88;3.40;;;18.20;47.60;;;;;;5134714;28;20106;-59
2022/04/06 03:55:16;;;;;;;10.55;2.30;;;18.30;47.20;;;;;;5134793;28;20415;-59
2022/04/06 03:57:43;;;;;;;8.35;2.50;;;18.40;47.00;;;;;;5134648;28;20064;-59
2022/04/06 04:00:09;;;;;;;8.63;2.65;;;18.40;46.90;;;;;;5134884;28;20031;-58
2022/04/06 04:02:35;;;;;;;8.73;3.00;;;18.50;46.90;;;;;;5135190;28;20495;-60
2022/04/06 04:05:01;;;;;;;9.88;2.40;;;18.60;46.70;;;;;;5134889;28;20015;-59
2022/04/06 04:07:27;;;;;;;7.95;2.70;;;18.70;46.40;;;;;;5134436;28;20015;-58
2022/04/06 04:09:54;;;;;;;9.70;2.80;;;18.70;46.10;;;;;;5134728;28;20023;-59
2022/04/06 04:12:19;;;;;;;7.35;2.33;;;18.90;45.90;;;;;;5134970;28;20525;-59
2022/04/06 04:14:45;;;;;;;9.73;2.75;;;19.00;45.60;;;;;;5135490;28;20047;-59
2022/04/06 04:17:11;;;;;;;9.70;2.60;;;19.10;45.10;;;;;;5135019;28;20427;-59
2022/04/06 04:19:37;;;;;;;7.40;2.50;;;19.20;44.90;;;;;;5134797;28;20076;-59
2022/04/06 04:22:04;;;;;;;7.97;2.65;;;19.20;44.80;;;;;;5134116;28;20043;-59
2022/04/06 04:24:29;;;;;;;8.57;2.38;;;19.30;44.60;;;;;;5134190;28;20008;-59
2022/04/06 04:26:55;;;;;;;7.20;2.35;;;19.40;44.40;;;;;;5117032;28;20095;-59
2022/04/06 04:29:22;;;;;;;6.97;2.40;;;19.50;44.10;;;;;;5119084;27;20114;-60
2022/04/06 04:31:48;;;;;;;6.53;2.42;;;19.60;43.90;;;;;;5138513;27;20050;-60
2022/04/06 04:34:14;;;;;;;8.93;2.80;;;19.70;43.70;;;;;;5139019;27;20017;-60
2022/04/06 04:36:40;;;;;;;8.38;2.38;;;19.80;43.40;;;;;;5142472;27;20023;-61
2022/04/06 04:39:06;;;;;;;6.15;1.95;;;20.00;43.10;;;;;;5143164;27;20017;-59
2022/04/06 04:41:33;;;;;;;6.57;2.13;;;20.00;42.80;;;;;;5126295;27;20019;-59
2022/04/06 04:43:59;;;;;;;6.35;1.80;;;20.10;42.80;;;;;;5125618;27;20019;-59
2022/04/06 04:46:25;;;;;;;6.53;2.20;;;20.10;42.60;;;;;;5124513;27;20491;-60
2022/04/06 04:48:50;;;;;;;4.28;2.00;;;20.20;42.20;;;;;;5124683;27;20409;-60
2022/04/06 04:51:16;;;;;;;6.35;2.03;;;20.30;42.00;;;;;;5141556;27;20011;-59
2022/04/06 04:53:42;;;;;;;5.53;2.17;;;20.40;41.90;;;;;;5139994;27;20022;-59
2022/04/06 04:56:08;;;;;;;8.73;1.95;;;20.50;41.50;;;;;;5138990;27;20016;-60
2022/04/06 04:58:35;;;;;;;9.18;2.30;;;20.60;41.30;;;;;;5139431;27;20380;-60
2022/04/06 05:01:01;;;;;;;6.03;2.00;;;20.60;41.10;;;;;;5140497;27;20011;-60
2022/04/06 05:03:28;;;;;;;7.53;1.92;;;20.70;41.10;;;;;;5138850;27;20549;-59
2022/04/06 05:05:56;;;;;;;5.90;1.88;;;20.70;40.90;;;;;;5136963;27;20038;-59
2022/04/06 05:08:22;;;;;;;8.50;1.85;;;20.80;40.90;;;;;;5118823;27;20501;-59
2022/04/06 05:10:47;;;;;;;6.95;1.85;;;20.80;40.80;;;;;;5136869;27;20038;-59
2022/04/06 05:13:14;;;;;;;8.77;2.22;;;20.90;40.60;;;;;;5137027;27;20112;-59
2022/04/06 05:15:40;;;;;;;7.35;1.92;;;20.90;40.40;;;;;;5136783;27;20007;-59
2022/04/06 05:18:07;;;;;;;5.70;1.77;;;20.90;40.20;;;;;;5136680;27;20469;-59
2022/04/06 05:20:34;;;;;;;9.20;2.28;;;21.00;40.30;;;;;;5118765;27;20046;-58
2022/04/06 05:23:00;;;;;;;6.57;2.10;;;21.10;40.20;;;;;;5137365;27;20062;-59
2022/04/06 05:25:26;;;;;;;6.22;2.15;;;21.10;40.10;;;;;;5118353;27;20023;-59
2022/04/06 05:27:54;;;;;;;7.05;2.20;;;21.10;40.00;;;;;;5137228;27;20019;-60
2022/04/06 05:30:22;;;;;;;5.50;1.98;;;21.10;40.00;;;;;;5137719;27;20027;-59
2022/04/06 05:32:49;;;;;;;4.85;1.85;;;21.20;40.10;;;;;;5136796;27;20461;-60
2022/04/06 05:35:15;;;;;;;4.82;1.77;;;21.20;40.00;;;;;;5136840;27;20023;-60
2022/04/06 05:37:42;;;;;;;5.38;1.70;;;21.20;39.90;;;;;;5136800;27;20015;-60
2022/04/06 05:40:09;;;;;;;6.35;1.88;;;21.20;39.90;;;;;;5136568;27;20090;-59
2022/04/06 05:42:35;;;;;;;5.47;1.67;;;21.30;39.90;;;;;;5137060;27;20023;-59
2022/04/06 05:45:04;;;;;;;7.97;2.08;;;21.30;39.80;;;;;;5137314;27;20015;-60
2022/04/06 05:47:30;;;;;;;4.50;1.65;;;21.30;39.90;;;;;;5136865;27;20027;-59
2022/04/06 05:49:56;;;;;;;6.85;2.28;;;21.30;39.70;;;;;;5136580;27;20030;-59
2022/04/06 05:52:22;;;;;;;8.52;2.28;;;21.40;39.60;;;;;;5117926;27;20015;-57
2022/04/06 05:54:48;;;;;;;9.63;2.42;;;21.50;39.50;;;;;;5136800;27;20019;-59
2022/04/06 05:57:15;;;;;;;6.43;1.88;;;21.50;39.40;;;;;;5136513;27;20007;-59
2022/04/06 05:59:41;;;;;;;5.40;1.85;;;21.50;39.40;;;;;;5101026;27;20038;-59
2022/04/06 06:02:07;;;;;;;6.15;1.70;;;21.60;39.30;;;;;;5136191;27;20015;-59
2022/04/06 06:04:33;;;;;;;4.00;1.73;;;21.60;39.00;;;;;;5135844;27;20022;-59
2022/04/06 06:07:00;;;;;;;5.13;1.90;;;21.70;38.90;;;;;;5137302;27;20019;-60
2022/04/06 06:09:25;;;;;;;4.15;1.90;;;21.70;38.90;;;;;;5117971;27;20027;-59
2022/04/06 06:11:51;;;;;;;6.70;2.00;;;21.70;38.90;;;;;;5136716;27;20090;-58
2022/04/06 06:14:17;;;;;;;7.13;2.10;;;21.70;38.90;;;;;;5137003;27;20392;-59
2022/04/06 06:16:45;;;;;;;4.40;1.80;;;21.70;38.90;;;;;;5138265;27;20015;-59
2022/04/06 06:19:11;;;;;;;8.02;1.80;;;21.70;38.80;;;;;;5138375;27;20019;-60
2022/04/06 06:21:37;;;;;;;5.47;1.73;;;21.70;38.90;;;;;;5137303;27;20074;-60
2022/04/06 06:24:06;;;;;;;5.65;2.08;;;21.70;38.70;;;;;;5119676;27;20019;-59
2022/04/06 06:26:36;;;;;;;5.25;2.03;;;21.80;38.70;;;;;;5137556;27;20077;-59
2022/04/06 06:29:03;;;;;;;5.97;2.15;;;21.80;38.60;;;;;;5120207;27;20043;-59
2022/04/06 06:31:29;;;;;;;4.07;1.45;;;21.80;38.60;;;;;;5137171;27;20524;-59
2022/04/06 06:33:58;;;;;;;5.18;1.55;;;21.80;38.50;;;;;;5136634;27;20124;-59
2022/04/06 06:36:24;;;;;;;4.55;1.67;;;21.80;38.50;;;;;;5102827;27;20117;-60
2022/04/06 06:38:53;;;;;;;5.40;1.70;;;21.80;38.40;;;;;;5120318;27;20027;-59
2022/04/06 06:41:19;;;;;;;5.15;1.67;;;21.90;38.40;;;;;;5136885;27;20016;-60
2022/04/06 06:43:46;;;;;;;4.82;1.63;;;21.80;38.40;;;;;;5118310;27;20548;-61
2022/04/06 06:46:12;;;;;;;5.63;1.95;;;21.90;38.40;;;;;;5117898;27;20455;-60
2022/04/06 06:48:37;;;;;;;6.20;1.92;;;21.90;38.20;;;;;;5136621;27;20032;-60
2022/04/06 06:51:04;;;;;;;4.70;1.60;;;21.90;38.10;;;;;;5116836;27;20019;-60
2022/04/06 06:53:31;;;;;;;4.05;1.83;;;22.00;38.10;;;;;;5134419;27;20015;-60
2022/04/06 06:55:57;;;;;;;4.50;1.65;;;22.00;38.10;;;;;;5135280;27;20022;-60
2022/04/06 06:58:23;;;;;;;4.22;1.75;;;21.90;38.10;;;;;;5134945;27;20021;-60
2022/04/06 07:00:49;;;;;;;5.40;1.70;;;21.90;38.10;;;;;;5117149;27;20027;-60
2022/04/06 07:03:15;;;;;;;8.68;1.73;;;21.90;38.20;;;;;;5135090;27;20018;-60
2022/04/06 07:05:41;;;;;;;5.70;1.80;;;21.90;38.10;;;;;;5135247;27;20020;-60
2022/04/06 07:08:08;;;;;;;8.25;1.52;;;22.00;38.00;;;;;;5135443;27;20137;-61
2022/04/06 07:10:34;;;;;;;5.65;1.52;;;22.00;38.00;;;;;;5135701;27;20022;-61
2022/04/06 07:13:00;;;;;;;4.28;1.48;;;22.00;38.00;;;;;;5135915;27;20011;-60
2022/04/06 07:15:26;;;;;;;5.50;1.77;;;22.00;38.00;;;;;;5135661;27;20473;-60
2022/04/06 07:17:57;;;;;;;6.70;1.58;;;22.00;38.00;;;;;;5135387;27;20461;-60
2022/04/06 07:20:23;;;;;;;7.13;1.45;;;22.00;37.90;;;;;;5135123;27;20059;-60
2022/04/06 07:22:50;;;;;;;5.00;1.60;;;22.10;37.90;;;;;;5135284;27;20063;-59
2022/04/06 07:25:17;;;;;;;4.07;1.50;;;22.10;37.90;;;;;;5136139;27;20092;-60
2022/04/06 07:27:43;;;;;;;3.92;1.27;;;22.10;37.80;;;;;;5136340;27;20477;-61
2022/04/06 07:30:09;;;;;;;5.20;1.60;;;22.10;37.70;;;;;;5136472;27;20019;-60
2022/04/06 07:32:36;;;;;;;4.93;1.60;;;22.10;37.70;;;;;;5136332;27;20095;-60
2022/04/06 07:35:04;;;;;;;3.95;1.70;;;22.20;37.70;;;;;;5135760;27;20012;-59
2022/04/06 07:37:43;;;;;;;7.05;1.65;;;22.30;37.70;;;;;;5134014;27;20050;-59
2022/04/06 07:40:10;;;;;;;7.28;1.77;;;22.30;37.50;;;;;;5134035;27;20103;-59
2022/04/06 07:42:36;;;;;;;4.18;1.80;;;22.30;37.50;;;;;;5134215;27;20022;-59
2022/04/06 07:45:21;;;;;;;5.13;1.50;;;22.30;37.50;;;;;;5133921;28;20012;-59
2022/04/06 07:47:48;;;;;;;4.47;1.65;;;22.30;37.50;;;;;;5134335;28;20023;-59
2022/04/06 07:50:15;;;;;;;6.93;1.67;;;22.30;37.40;;;;;;5134289;28;20023;-60
2022/04/06 07:52:40;;;;;;;6.10;1.58;;;22.30;37.50;;;;;;5115576;28;20027;-59
2022/04/06 07:55:07;;;;;;;4.55;1.70;;;22.30;37.60;;;;;;5115331;28;20019;-59
2022/04/06 07:57:33;;;;;;;7.15;1.80;;;22.30;37.50;;;;;;5133554;28;20030;-59
2022/04/06 08:00:01;;;;;;;5.63;1.70;;;22.30;37.50;;;;;;5133695;28;20012;-58
2022/04/06 08:02:26;;;;;;;7.18;1.50;;;22.30;37.60;;;;;;5133473;27;20094;-59
2022/04/06 08:04:53;;;;;;;9.38;1.95;;;22.30;37.60;;;;;;5119281;27;20506;-59
2022/04/06 08:07:19;;;;;;;5.85;1.60;;;22.30;37.70;;;;;;5121088;27;20023;-60
2022/04/06 08:09:45;;;;;;;5.53;1.60;;;22.30;37.70;;;;;;5138675;27;20473;-59
2022/04/06 08:12:10;;;;;;;9.05;1.92;;;22.30;37.60;;;;;;5120224;27;20019;-60
2022/04/06 08:14:36;;;;;;;4.88;1.20;;;22.40;37.60;;;;;;5120302;27;20469;-59
2022/04/06 08:17:04;;;;;;;3.35;1.40;;;22.40;37.60;;;;;;5138655;27;20034;-60
2022/04/06 08:19:29;;;;;;;3.90;1.40;;;22.40;37.50;;;;;;5120153;27;20111;-60
2022/04/06 08:21:55;;;;;;;6.45;1.52;;;22.40;37.40;;;;;;5137703;27;20122;-60
2022/04/06 08:24:21;;;;;;;5.15;1.60;;;22.50;37.40;;;;;;5119718;27;20046;-60
2022/04/06 08:26:48;;;;;;;3.67;1.30;;;22.50;37.40;;;;;;5137798;27;20022;-58
2022/04/06 08:29:13;;;;;;;8.65;1.75;;;22.50;37.40;;;;;;5119696;27;20019;-59
2022/04/06 08:31:40;;;;;;;7.82;2.15;;;22.50;37.40;;;;;;5137901;27;20043;-60
2022/04/06 08:34:06;;;;;;;6.60;1.52;;;22.50;37.40;;;;;;5119977;27;20050;-61
2022/04/06 08:36:34;;;;;;;4.97;1.48;;;22.50;37.40;;;;;;5137848;27;20018;-60
2022/04/06 08:39:02;;;;;;;5.07;1.58;;;22.50;37.40;;;;;;5137620;27;20469;-61
2022/04/06 08:41:28;;;;;;;4.80;1.70;;;22.50;37.30;;;;;;5137894;27;20026;-60
2022/04/06 08:43:55;;;;;;;4.47;1.55;;;22.60;37.20;;;;;;5137587;27;20023;-60
2022/04/06 08:46:21;;;;;;;5.53;1.90;;;22.60;37.20;;;;;;5119804;27;20120;-61
2022/04/06 08:48:48;;;;;;;7.38;2.20;;;22.60;37.10;;;;;;5137718;27;20022;-60
2022/04/06 08:51:14;;;;;;;9.55;1.83;;;22.60;37.00;;;;;;5138294;27;20115;-60
2022/04/06 08:53:41;;;;;;;9.55;1.85;;;22.60;37.10;;;;;;5137999;27;20062;-61
2022/04/06 08:56:07;;;;;;;7.70;1.88;;;22.60;37.20;;;;;;5138308;27;20019;-61
2022/04/06 08:58:32;;;;;;;8.45;1.75;;;22.60;37.20;;;;;;5138201;27;20022;-61
2022/04/06 09:00:58;;;;;;;7.68;2.33;;;22.60;37.10;;;;;;5137777;27;20431;-61
2022/04/06 09:03:25;;;;;;;8.23;1.77;;;22.60;37.10;;;;;;5119625;27;20015;-61
2022/04/06 09:06:01;;;;;;;11.35;1.85;;;22.70;37.10;;;;;;5139605;27;20032;-60
2022/04/06 09:08:39;;;;;;;6.45;1.63;;;22.70;37.10;;;;;;5139807;27;20557;-60
2022/04/06 09:11:10;;;;;;;6.68;2.08;;;22.70;37.00;;;;;;5140009;27;20015;-61
2022/04/06 09:13:36;;;;;;;9.88;1.95;;;22.70;37.00;;;;;;5140676;27;20011;-61
2022/04/06 09:16:04;;;;;;;8.75;1.95;;;22.70;37.00;;;;;;5119838;27;20019;-60
2022/04/06 09:18:34;;;;;;;9.20;2.30;;;22.70;36.90;;;;;;5138379;27;20015;-61
2022/04/06 09:21:00;;;;;;;8.05;1.95;;;22.80;37.10;;;;;;5120803;27;20121;-61
2022/04/06 09:23:30;;;;;;;6.68;1.85;;;22.70;37.00;;;;;;5137908;27;20054;-59
2022/04/06 09:25:55;;;;;;;8.85;2.08;;;22.70;36.90;;;;;;5138566;27;20016;-60
2022/04/06 09:28:21;;;;;;;8.70;1.90;;;22.70;36.90;;;;;;5119622;27;20534;-59
2022/04/06 09:30:47;;;;;;;7.18;1.70;;;22.80;36.90;;;;;;5137124;27;20008;-59
2022/04/06 09:33:18;;;;;;;7.47;1.80;;;22.80;37.00;;;;;;5137582;27;20040;-59
2022/04/06 09:35:44;;;;;;;6.25;1.83;;;22.80;37.20;;;;;;5137690;27;20014;-59
2022/04/06 09:38:22;;;;;;;5.82;1.52;;;22.80;37.00;;;;;;5137805;27;20039;-60
2022/04/06 09:40:48;;;;;;;5.93;1.63;;;22.80;37.00;;;;;;5137555;27;20035;-62
2022/04/06 09:43:28;;;;;;;4.53;1.52;;;22.80;37.00;;;;;;5137027;27;20037;-61
2022/04/06 09:48:55;;;;;;;5.13;1.30;;;22.90;36.90;;;;;;5137678;27;20084;-61
2022/04/06 09:51:22;;;;;;;5.03;1.33;;;22.90;37.00;;;;;;5137420;27;20023;-61
2022/04/06 09:53:52;;;;;;;6.65;1.65;;;22.80;37.00;;;;;;5138093;27;20012;-61
2022/04/06 09:56:17;;;;;;;4.82;1.45;;;22.80;37.10;;;;;;5137407;27;20015;-62
2022/04/06 09:58:44;;;;;;;6.90;1.33;;;22.90;37.20;;;;;;5137615;27;20023;-61
2022/04/06 10:01:17;;;;;;;6.47;1.67;;;22.80;37.10;;;;;;5137721;27;20023;-61
2022/04/06 10:03:51;;;;;;;7.55;1.77;;;22.80;37.20;;;;;;5137697;27;20015;-60
2022/04/06 10:06:17;;;;;;;4.28;1.35;;;22.80;37.20;;;;;;5138510;27;20019;-61
2022/04/06 10:08:43;;;;;;;11.63;1.40;;;22.80;37.30;;;;;;5119412;27;20052;-61
2022/04/06 10:11:10;;;;;;;2.03;1.13;;;22.80;37.30;;;;;;5137191;27;20003;-61
2022/04/06 10:13:37;;;;;;;4.22;1.40;;;22.90;37.30;;;;;;5136631;27;20047;-60
2022/04/06 10:16:03;;;;;;;5.80;1.30;;;22.80;37.40;;;;;;5119434;27;20031;-61
2022/04/06 10:18:31;;;;;;;5.97;1.50;;;22.80;37.50;;;;;;5138120;27;20510;-60
2022/04/06 10:21:10;;;;;;;5.93;1.95;;;22.70;37.50;;;;;;5101803;27;20019;-59
2022/04/06 10:23:57;;;;;;;4.45;1.10;;;22.70;37.60;;;;;;5118210;27;20042;-59
2022/04/06 10:26:34;;;;;;;5.40;1.27;;;22.60;37.70;;;;;;5135855;27;20027;-59
2022/04/06 10:29:00;;;;;;;6.53;1.40;;;22.60;37.80;;;;;;5135925;27;20495;-59
2022/04/06 10:31:29;;;;;;;4.30;1.42;;;22.50;37.90;;;;;;5119776;27;20043;-59
2022/04/06 10:34:20;;;;;;;4.03;1.63;;;22.50;38.00;;;;;;5118273;27;20016;-60
2022/04/06 10:37:11;;;;;;;4.38;1.38;;;22.40;38.10;;;;;;5135291;27;20014;-59
2022/04/06 10:39:57;;;;;;;3.15;1.17;;;22.30;38.30;;;;;;5135022;27;20023;-59
2022/04/06 10:42:32;;;;;;;3.03;1.25;;;22.20;38.40;;;;;;5134790;27;20026;-59
2022/04/06 10:44:59;;;;;;;4.18;1.48;;;22.20;38.60;;;;;;5134771;27;20104;-59
2022/04/06 10:47:25;;;;;;;3.13;1.17;;;22.10;38.60;;;;;;5116587;27;20022;-60
2022/04/06 10:50:11;;;;;;;3.55;1.30;;;22.10;38.80;;;;;;5117143;27;20027;-60
2022/04/06 10:52:38;;;;;;;3.47;1.30;;;22.00;38.90;;;;;;5135891;27;20012;-60
2022/04/06 10:55:14;;;;;;;5.50;1.50;;;22.00;39.10;;;;;;5135730;27;20147;-59
2022/04/06 10:58:02;;;;;;;2.95;1.15;;;21.90;39.00;;;;;;5136170;27;20014;-60
2022/04/06 11:00:28;;;;;;;3.42;1.40;;;21.80;39.20;;;;;;5136048;27;20101;-60
2022/04/06 11:02:54;;;;;;;3.53;1.23;;;21.90;39.30;;;;;;5135628;27;20045;-59
2022/04/06 11:05:46;;;;;;;5.65;1.63;;;21.80;39.40;;;;;;5135391;27;20023;-60
2022/04/06 11:11:43;;;;;;;5.97;1.40;;;21.70;39.50;;;;;;5134689;27;20037;-59
2022/04/06 11:14:08;;;;;;;3.75;1.20;;;21.60;39.60;;;;;;5134749;27;20064;-59
2022/04/06 11:16:48;;;;;;;4.40;1.10;;;21.60;39.80;;;;;;5134513;27;20023;-59
2022/04/06 11:19:14;;;;;;;4.05;1.40;;;21.60;39.90;;;;;;5134184;27;20015;-60
2022/04/06 11:21:53;;;;;;;3.55;1.48;;;21.50;39.90;;;;;;5116345;27;20051;-59
2022/04/06 11:24:28;;;;;;;3.03;1.20;;;21.50;40.10;;;;;;5134670;27;20461;-59
2022/04/06 11:26:54;;;;;;;5.32;1.23;;;21.50;40.80;;;;;;5134313;27;20358;-59
2022/04/06 11:29:27;;;;;;;5.20;1.80;;;21.40;40.40;;;;;;5134362;27;20118;-60
2022/04/06 11:31:59;;;;;;;6.25;1.70;;;21.30;40.40;;;;;;5134559;27;20027;-59
2022/04/06 11:34:32;;;;;;;6.15;1.80;;;21.30;40.50;;;;;;5134872;27;20015;-59
2022/04/06 11:37:01;;;;;;;4.22;1.70;;;21.30;40.60;;;;;;5134648;27;20098;-59
2022/04/06 11:39:28;;;;;;;12.48;2.15;;;21.10;40.90;;;;;;5116326;27;20099;-59
2022/04/06 11:41:54;;;;;;;7.75;2.28;;;20.90;41.30;;;;;;5135526;27;20066;-59
2022/04/06 11:44:21;;;;;;;8.82;2.30;;;20.70;41.60;;;;;;5135419;27;20019;-59
2022/04/06 11:46:47;;;;;;;8.93;2.33;;;20.60;42.00;;;;;;5134994;28;20022;-59
2022/04/06 11:49:19;;;;;;;11.48;2.70;;;20.60;42.00;;;;;;5134751;28;20024;-59
2022/04/06 11:51:45;;;;;;;9.35;2.63;;;20.50;42.40;;;;;;5116884;28;20011;-60
2022/04/06 11:54:11;;;;;;;11.77;2.75;;;20.40;42.70;;;;;;5134162;28;20026;-59
2022/04/06 11:56:36;;;;;;;13.75;2.47;;;20.20;42.80;;;;;;5134434;28;20019;-59
2022/04/06 11:59:02;;;;;;;12.63;2.75;;;20.20;43.10;;;;;;5134241;28;20465;-59
2022/04/06 12:01:28;;;;;;;7.88;2.33;;;20.20;43.20;;;;;;5134288;28;20026;-60
2022/04/06 12:03:58;;;;;;;9.95;2.80;;;20.10;43.40;;;;;;5098830;28;20019;-58
2022/04/06 12:06:30;;;;;;;13.15;3.03;;;20.10;43.60;;;;;;5117086;28;20085;-59
2022/04/06 12:08:57;;;;;;;12.80;2.83;;;20.00;43.70;;;;;;5134956;28;20079;-60
2022/04/06 12:11:23;;;;;;;11.10;3.08;;;20.00;43.90;;;;;;5116810;28;20011;-60
2022/04/06 12:13:48;;;;;;;8.68;2.40;;;19.90;44.00;;;;;;5134481;28;20011;-59
2022/04/06 12:16:14;;;;;;;12.85;3.13;;;19.90;44.30;;;;;;5134437;28;20516;-59
2022/04/06 12:18:41;;;;;;;13.45;2.90;;;19.90;44.50;;;;;;5116100;28;20031;-59
2022/04/06 12:21:32;;;;;;;8.73;2.47;;;19.80;44.70;;;;;;5134224;28;20041;-58
2022/04/06 12:23:58;;;;;;;8.38;3.17;;;19.80;44.80;;;;;;5115906;28;20031;-58
2022/04/06 12:26:24;;;;;;;12.25;2.55;;;19.70;44.90;;;;;;5134136;28;20016;-59
2022/04/06 12:28:59;;;;;;;8.90;2.63;;;19.70;45.10;;;;;;5134697;28;20034;-58
2022/04/06 12:31:34;;;;;;;11.85;2.70;;;19.60;45.20;;;;;;5116836;28;20012;-58
2022/04/06 12:34:00;;;;;;;7.00;2.53;;;19.60;45.40;;;;;;5134594;28;20019;-59
2022/04/06 12:36:27;;;;;;;8.48;2.65;;;19.60;45.30;;;;;;5134584;28;20727;-58
2022/04/06 12:39:03;;;;;;;9.75;3.28;;;19.50;45.40;;;;;;5134431;28;20012;-59
2022/04/06 12:41:30;;;;;;;9.88;2.97;;;19.50;45.60;;;;;;5134848;28;20023;-59
2022/04/06 12:43:56;;;;;;;7.75;2.85;;;19.50;45.60;;;;;;5134846;28;20023;-59
2022/04/06 12:46:58;;;;;;;7.75;2.55;;;19.50;45.60;;;;;;5134575;28;20018;-60
2022/04/06 12:49:32;;;;;;;8.45;3.03;;;19.50;45.70;;;;;;5032751;28;20026;-60
2022/04/06 12:52:14;;;;;;;8.45;2.83;;;19.50;45.90;;;;;;5034753;28;20029;-61
2022/04/06 12:54:41;;;;;;;12.15;2.65;;;19.50;45.90;;;;;;5034385;28;20013;-60
2022/04/06 12:57:13;;;;;;;9.63;2.80;;;19.50;45.90;;;;;;5034327;28;20029;-61
2022/04/06 12:59:44;;;;;;;10.23;3.10;;;19.50;46.60;;;;;;5034597;28;20022;-61